Time;durP1;ratioP1;P1;durP2;ratioP2;P2;SDS_P1;SDS_P2;PMS_P1;PMS_P2;Temp;Humidity;BMP_temperature;BMP_pressure;BME280_temperature;BME280_humidity;BME280_pressure;Samples;Min_cycle;Max_cycle;Signal;HPM_P1;HPM_P2
2021/05/16 00:02:20;;;;;;;1999.90;999.90;;;9.00;99.90;;;;;;5072725;28;20267;-72
2021/05/16 00:04:46;;;;;;;1999.90;999.90;;;9.00;99.90;;;;;;5073005;28;20178;-72
2021/05/16 00:07:11;;;;;;;1999.90;999.90;;;8.90;99.90;;;;;;5073296;28;20255;-72
2021/05/16 00:09:37;;;;;;;1999.90;999.90;;;9.00;99.90;;;;;;5073026;28;20208;-72
2021/05/16 00:12:04;;;;;;;1999.90;999.90;;;9.00;99.90;;;;;;5072007;28;20292;-73
2021/05/16 00:14:30;;;;;;;1999.90;999.90;;;8.90;99.90;;;;;;5071361;28;20233;-72
2021/05/16 00:16:56;;;;;;;1999.90;999.90;;;9.10;99.90;;;;;;5050789;28;20180;-72
2021/05/16 00:19:22;;;;;;;1999.90;999.90;;;8.90;99.90;;;;;;5071400;28;20179;-72
2021/05/16 00:21:48;;;;;;;1999.90;999.90;;;8.90;99.90;;;;;;5071264;28;20191;-73
2021/05/16 00:24:15;;;;;;;1999.90;999.90;;;8.80;99.90;;;;;;5071400;28;20189;-73
2021/05/16 00:26:40;;;;;;;1999.90;999.90;;;8.90;99.90;;;;;;5071304;28;20256;-73
2021/05/16 00:29:06;;;;;;;1999.90;999.90;;;9.00;99.90;;;;;;5071090;28;20271;-72
2021/05/16 00:31:32;;;;;;;1999.90;999.90;;;8.90;99.90;;;;;;5071482;28;20238;-72
2021/05/16 00:33:58;;;;;;;1999.90;999.90;;;8.90;99.90;;;;;;5072743;28;20174;-73
2021/05/16 00:36:24;;;;;;;1999.90;999.90;;;8.90;99.90;;;;;;5071800;28;20544;-73
2021/05/16 00:38:50;;;;;;;1999.90;999.90;;;8.90;99.90;;;;;;5069238;28;20258;-73
2021/05/16 00:41:15;;;;;;;1999.90;999.90;;;8.90;99.90;;;;;;5071244;28;20181;-73
2021/05/16 00:43:41;;;;;;;1999.90;999.90;;;8.90;99.90;;;;;;5071100;28;20198;-73
2021/05/16 00:46:09;;;;;;;1999.90;999.90;;;9.20;99.90;;;;;;5071099;28;20190;-73
2021/05/16 00:48:36;;;;;;;1999.90;999.90;;;8.90;99.90;;;;;;5070545;28;20208;-73
2021/05/16 00:51:02;;;;;;;1999.90;999.90;;;8.80;99.90;;;;;;5052320;28;20206;-72
2021/05/16 00:53:28;;;;;;;1999.90;999.90;;;8.90;99.90;;;;;;5070524;28;20179;-73
2021/05/16 00:55:55;;;;;;;1999.90;999.90;;;8.90;99.90;;;;;;5058324;28;20548;-73
2021/05/16 00:58:21;;;;;;;1999.90;999.90;;;9.20;99.90;;;;;;5050786;28;20215;-73
2021/05/16 01:00:47;;;;;;;1999.90;999.90;;;9.30;99.90;;;;;;5032909;28;20270;-72
2021/05/16 01:03:13;;;;;;;1999.90;999.90;;;9.10;99.90;;;;;;5054063;28;20280;-73
2021/05/16 01:05:42;;;;;;;1999.90;999.90;;;9.10;99.90;;;;;;5052792;28;20571;-73
2021/05/16 01:08:08;;;;;;;1999.90;999.90;;;9.10;99.90;;;;;;5054033;28;20273;-72
2021/05/16 01:10:34;;;;;;;1999.90;999.90;;;8.90;99.90;;;;;;5050568;28;20211;-73
2021/05/16 01:13:03;;;;;;;1999.90;999.90;;;8.80;99.90;;;;;;5052659;28;20235;-73
2021/05/16 01:15:29;;;;;;;1999.90;999.90;;;8.90;99.90;;;;;;5058339;28;20254;-72
2021/05/16 01:17:54;;;;;;;1999.90;999.90;;;8.80;99.90;;;;;;5055167;28;20266;-73
2021/05/16 01:20:31;;;;;;;1999.90;999.90;;;9.00;99.90;;;;;;5071890;28;20172;-73
2021/05/16 01:23:06;;;;;;;1999.90;999.90;;;9.00;99.90;;;;;;5057181;28;20183;-73
2021/05/16 01:25:37;;;;;;;1999.90;999.90;;;9.10;99.90;;;;;;5073949;28;20278;-73
2021/05/16 01:28:05;;;;;;;1999.90;999.90;;;9.10;99.90;;;;;;5055357;28;20220;-72
2021/05/16 01:30:31;;;;;;;1999.90;999.90;;;9.00;99.90;;;;;;5073476;28;20205;-73
2021/05/16 01:32:56;;;;;;;1999.90;999.90;;;9.00;99.90;;;;;;5073489;28;20716;-73
2021/05/16 01:35:23;;;;;;;1999.90;999.90;;;9.00;99.90;;;;;;5073645;28;20279;-73
2021/05/16 01:37:49;;;;;;;1999.90;999.90;;;9.00;99.90;;;;;;5073409;28;20210;-73
2021/05/16 01:40:20;;;;;;;1999.90;999.90;;;9.00;99.90;;;;;;5073468;28;20175;-73
2021/05/16 01:42:51;;;;;;;1999.90;999.90;;;9.00;99.90;;;;;;5074259;28;20182;-73
2021/05/16 01:45:20;;;;;;;1999.90;999.90;;;9.20;99.90;;;;;;5073402;28;20190;-73
2021/05/16 01:47:45;;;;;;;1999.90;999.90;;;9.10;99.90;;;;;;5073047;28;20198;-73
2021/05/16 01:50:14;;;;;;;1999.90;999.90;;;9.00;99.90;;;;;;5073033;28;20320;-73
2021/05/16 01:52:42;;;;;;;1999.90;999.90;;;9.00;99.90;;;;;;5073122;28;20254;-72
2021/05/16 01:55:10;;;;;;;1999.90;999.90;;;8.90;99.90;;;;;;5070170;28;20183;-73
2021/05/16 01:57:37;;;;;;;1999.90;999.90;;;8.90;99.90;;;;;;5070037;28;20194;-73
2021/05/16 02:00:08;;;;;;;1999.90;999.90;;;9.00;99.90;;;;;;5072957;28;20187;-73
2021/05/16 02:02:35;;;;;;;1999.90;999.90;;;8.90;99.90;;;;;;5072874;28;20266;-73
2021/05/16 02:05:00;;;;;;;1999.90;999.90;;;9.00;99.90;;;;;;5072882;28;20198;-73
2021/05/16 02:07:27;;;;;;;1999.90;999.90;;;9.20;99.90;;;;;;5055375;28;20298;-72
2021/05/16 02:09:54;;;;;;;1999.90;999.90;;;9.20;99.90;;;;;;5072704;28;20188;-73
2021/05/16 02:12:21;;;;;;;1999.90;999.90;;;9.20;99.90;;;;;;5072683;28;20212;-73
2021/05/16 02:14:48;;;;;;;1999.90;999.90;;;9.30;99.90;;;;;;5072728;28;20191;-73
2021/05/16 02:17:14;;;;;;;1999.90;999.90;;;9.10;99.90;;;;;;5061851;28;20203;-72
2021/05/16 02:19:40;;;;;;;1999.90;999.90;;;8.90;99.90;;;;;;5061996;28;20566;-72
2021/05/16 02:22:07;;;;;;;1999.90;999.90;;;9.00;99.90;;;;;;5052401;28;20185;-72
2021/05/16 02:24:32;;;;;;;1999.90;999.90;;;9.10;99.90;;;;;;5069517;28;20669;-73
2021/05/16 02:26:59;;;;;;;1999.90;999.90;;;9.10;99.90;;;;;;5071701;28;20265;-73
2021/05/16 02:29:27;;;;;;;1999.90;999.90;;;9.30;99.90;;;;;;5072197;28;20190;-73
2021/05/16 02:31:52;;;;;;;1999.90;999.90;;;9.30;99.90;;;;;;5054024;28;20289;-73
2021/05/16 02:34:18;;;;;;;1999.90;999.90;;;9.30;99.90;;;;;;5065021;28;20662;-72
2021/05/16 02:36:44;;;;;;;1999.90;999.90;;;9.00;99.90;;;;;;5052943;28;20565;-73
2021/05/16 02:39:10;;;;;;;1999.90;999.90;;;9.00;99.90;;;;;;5050972;28;20201;-73
2021/05/16 02:41:36;;;;;;;1999.90;999.90;;;9.00;99.90;;;;;;5071942;28;20656;-74
2021/05/16 02:44:02;;;;;;;1999.90;999.90;;;8.90;99.90;;;;;;5071873;28;20190;-73
2021/05/16 02:46:27;;;;;;;1999.90;999.90;;;8.90;99.90;;;;;;5071941;28;20933;-72
2021/05/16 02:48:53;;;;;;;1999.90;999.90;;;8.90;99.90;;;;;;5071871;28;20276;-72
2021/05/16 02:51:20;;;;;;;1999.90;999.90;;;8.90;99.90;;;;;;5072016;28;20206;-73
2021/05/16 02:53:47;;;;;;;1999.90;999.90;;;9.00;99.90;;;;;;5072016;28;20185;-72
2021/05/16 02:56:13;;;;;;;1999.90;999.90;;;9.00;99.90;;;;;;5071610;28;20651;-73
2021/05/16 02:58:39;;;;;;;1999.90;999.90;;;9.20;99.90;;;;;;5072175;28;20552;-72
2021/05/16 03:01:05;;;;;;;1999.90;999.90;;;9.20;99.90;;;;;;5054473;28;20273;-73
2021/05/16 03:03:30;;;;;;;1999.90;999.90;;;9.30;99.90;;;;;;5071849;28;20178;-73
2021/05/16 03:05:56;;;;;;;1999.90;999.90;;;9.30;99.90;;;;;;5071565;28;20187;-73
2021/05/16 03:08:22;;;;;;;1999.90;999.90;;;9.20;99.90;;;;;;5053363;28;20213;-72
2021/05/16 03:10:48;;;;;;;1999.90;999.90;;;9.20;99.90;;;;;;5053442;28;20695;-73
2021/05/16 03:13:13;;;;;;;1999.90;999.90;;;9.30;99.90;;;;;;5053404;28;20194;-73
2021/05/16 03:15:39;;;;;;;1999.90;999.90;;;9.40;99.90;;;;;;5071405;28;20179;-72
2021/05/16 03:18:05;;;;;;;1999.90;999.90;;;9.40;99.90;;;;;;5071272;28;20203;-73
2021/05/16 03:20:31;;;;;;;1999.90;999.90;;;9.40;99.90;;;;;;5071103;28;20219;-73
2021/05/16 03:22:56;;;;;;;1999.90;999.90;;;9.30;99.90;;;;;;5053296;28;20188;-73
2021/05/16 03:25:22;;;;;;;1999.90;999.90;;;9.30;99.90;;;;;;5053612;28;20226;-73
2021/05/16 03:27:47;;;;;;;1999.90;999.90;;;9.30;99.90;;;;;;5071119;28;20231;-73
2021/05/16 03:30:13;;;;;;;1999.90;999.90;;;9.30;99.90;;;;;;5071101;28;20310;-73
2021/05/16 03:32:41;;;;;;;1999.90;999.90;;;9.30;99.90;;;;;;5053149;28;20191;-72
2021/05/16 03:35:09;;;;;;;1999.90;999.90;;;9.40;99.90;;;;;;5052883;28;20185;-73
2021/05/16 03:37:34;;;;;;;1999.90;999.90;;;9.30;99.90;;;;;;5054410;28;20377;-73
2021/05/16 03:40:00;;;;;;;1999.90;999.90;;;9.20;99.90;;;;;;5071579;28;20638;-73
2021/05/16 03:42:26;;;;;;;1999.90;999.90;;;9.30;99.90;;;;;;5070860;28;20183;-73
2021/05/16 03:44:53;;;;;;;1999.90;999.90;;;9.10;99.90;;;;;;5052782;28;20186;-73
2021/05/16 03:47:19;;;;;;;1999.90;999.90;;;9.10;99.90;;;;;;5070746;28;20669;-72
2021/05/16 03:49:45;;;;;;;1999.90;999.90;;;9.20;99.90;;;;;;5052936;28;20273;-73
2021/05/16 03:52:11;;;;;;;1999.90;999.90;;;9.10;99.90;;;;;;5070823;28;20332;-72
2021/05/16 03:54:40;;;;;;;1999.90;999.90;;;9.20;99.90;;;;;;5071249;28;20270;-72
2021/05/16 03:57:06;;;;;;;1999.90;999.90;;;9.20;99.90;;;;;;5062145;28;20183;-73
2021/05/16 03:59:31;;;;;;;1999.90;999.90;;;9.20;99.90;;;;;;5053439;28;20267;-73
2021/05/16 04:01:57;;;;;;;1999.90;999.90;;;9.40;99.90;;;;;;5060460;28;20274;-72
2021/05/16 04:04:23;;;;;;;1999.90;999.90;;;9.30;99.90;;;;;;5063164;28;20556;-74
2021/05/16 04:06:48;;;;;;;1999.90;999.90;;;9.20;99.90;;;;;;5059045;28;20183;-72
2021/05/16 04:09:14;;;;;;;1999.90;999.90;;;9.10;99.90;;;;;;5063824;28;20206;-73
2021/05/16 04:11:39;;;;;;;1999.90;999.90;;;9.10;99.90;;;;;;5069455;28;20201;-73
2021/05/16 04:14:05;;;;;;;1999.90;999.90;;;9.10;99.90;;;;;;5070646;28;20183;-73
2021/05/16 04:16:31;;;;;;;1999.90;999.90;;;9.10;99.90;;;;;;5069858;28;20179;-73
2021/05/16 04:18:57;;;;;;;1999.90;999.90;;;9.20;99.90;;;;;;5070500;28;20198;-73
2021/05/16 04:21:23;;;;;;;1999.90;999.90;;;9.10;99.90;;;;;;5070588;28;20236;-73
2021/05/16 04:23:48;;;;;;;1999.90;999.90;;;9.20;99.90;;;;;;5069118;28;20182;-72
2021/05/16 04:26:14;;;;;;;1999.90;999.90;;;9.00;99.90;;;;;;5048200;28;20178;-73
2021/05/16 04:28:40;;;;;;;1999.90;999.90;;;9.00;99.90;;;;;;5065689;28;20223;-73
2021/05/16 04:31:05;;;;;;;1999.90;999.90;;;9.10;99.90;;;;;;5070418;28;20286;-73
2021/05/16 04:33:31;;;;;;;1999.90;999.90;;;9.30;99.90;;;;;;5070636;28;20187;-73
2021/05/16 04:35:58;;;;;;;1999.90;999.90;;;9.00;99.90;;;;;;5070383;28;20261;-73
2021/05/16 04:38:24;;;;;;;1999.90;999.90;;;9.00;99.90;;;;;;5070787;28;20296;-72
2021/05/16 04:40:50;;;;;;;1999.90;999.90;;;9.00;99.90;;;;;;5049695;28;20926;-73
2021/05/16 04:43:15;;;;;;;1999.90;999.90;;;8.90;99.90;;;;;;5067140;28;20183;-72
2021/05/16 04:45:41;;;;;;;1999.90;999.90;;;9.00;99.90;;;;;;5051859;28;20210;-73
2021/05/16 04:48:07;;;;;;;1999.90;999.90;;;9.10;99.90;;;;;;5054475;28;20210;-73
2021/05/16 04:50:33;;;;;;;1999.90;999.90;;;9.00;99.90;;;;;;5073380;28;20181;-73
2021/05/16 04:52:59;;;;;;;1999.90;999.90;;;8.90;99.90;;;;;;5073430;28;20167;-72
2021/05/16 04:55:25;;;;;;;1999.90;999.90;;;9.10;99.90;;;;;;5057115;28;20170;-72
2021/05/16 04:57:50;;;;;;;1999.90;999.90;;;9.10;99.90;;;;;;5073738;28;20206;-73
2021/05/16 05:00:18;;;;;;;1999.90;999.90;;;9.30;99.90;;;;;;5072569;28;20177;-73
2021/05/16 05:02:46;;;;;;;1999.90;999.90;;;9.30;99.90;;;;;;5053660;28;20173;-74
2021/05/16 05:05:13;;;;;;;1999.90;999.90;;;9.30;99.90;;;;;;5070845;28;20649;-72
2021/05/16 05:07:38;;;;;;;1999.90;999.90;;;9.20;99.90;;;;;;5067507;28;20187;-73
2021/05/16 05:10:05;;;;;;;1999.90;999.90;;;9.20;99.90;;;;;;5038811;28;20227;-73
2021/05/16 05:12:32;;;;;;;1999.90;999.90;;;9.20;99.90;;;;;;5054336;28;20207;-73
2021/05/16 05:14:57;;;;;;;1999.90;999.90;;;9.30;99.90;;;;;;5056060;28;20191;-73
2021/05/16 05:17:23;;;;;;;1999.90;999.90;;;9.40;99.90;;;;;;5055593;28;20194;-72
2021/05/16 05:19:48;;;;;;;1999.90;999.90;;;9.30;99.90;;;;;;5073975;28;20239;-73
2021/05/16 05:22:14;;;;;;;1999.90;999.90;;;9.50;99.90;;;;;;5073551;28;20182;-73
2021/05/16 05:24:40;;;;;;;1999.90;999.90;;;9.50;99.90;;;;;;5073601;28;20182;-73
2021/05/16 05:27:05;;;;;;;1999.90;999.90;;;9.60;99.90;;;;;;5073261;28;20187;-73
2021/05/16 05:29:31;;;;;;;1999.90;999.90;;;9.60;99.90;;;;;;5072819;28;20213;-73
2021/05/16 05:31:57;;;;;;;1999.90;999.90;;;10.00;99.90;;;;;;5054537;28;20257;-73
2021/05/16 05:34:25;;;;;;;1999.90;999.90;;;9.70;99.90;;;;;;5072699;28;20204;-73
2021/05/16 05:36:51;;;;;;;1999.90;999.90;;;9.70;99.90;;;;;;5070137;28;20170;-72
2021/05/16 05:39:17;;;;;;;1999.90;999.90;;;9.70;99.90;;;;;;5055026;28;20201;-73
2021/05/16 05:41:44;;;;;;;1999.90;999.90;;;9.70;99.90;;;;;;5073240;28;20187;-73
2021/05/16 05:44:11;;;;;;;1999.90;999.90;;;9.60;99.90;;;;;;5073122;28;20185;-73
2021/05/16 05:46:37;;;;;;;1999.90;999.90;;;9.70;99.90;;;;;;5073178;28;20186;-73
2021/05/16 05:49:03;;;;;;;1999.90;999.90;;;9.70;99.90;;;;;;5072872;28;20230;-73
2021/05/16 05:51:29;;;;;;;1999.90;999.90;;;9.50;99.90;;;;;;5056164;28;20265;-73
2021/05/16 05:53:54;;;;;;;1999.90;999.90;;;9.70;99.90;;;;;;5073780;28;20653;-73
2021/05/16 05:56:20;;;;;;;1999.90;999.90;;;9.70;99.90;;;;;;5054624;28;20173;-73
2021/05/16 05:58:46;;;;;;;1999.90;999.90;;;9.70;99.90;;;;;;5073052;28;20206;-72
2021/05/16 06:01:11;;;;;;;1999.90;999.90;;;9.60;99.90;;;;;;5072711;28;20258;-73
2021/05/16 06:03:37;;;;;;;1999.90;999.90;;;9.80;99.90;;;;;;5070974;28;20269;-72
2021/05/16 06:06:03;;;;;;;1999.90;999.90;;;9.90;99.90;;;;;;5060768;28;20174;-72
2021/05/16 06:08:29;;;;;;;1999.90;999.90;;;9.90;99.90;;;;;;5074181;28;20211;-73
2021/05/16 06:10:54;;;;;;;1999.90;999.90;;;10.00;99.90;;;;;;5074317;28;20202;-73
2021/05/16 06:13:22;;;;;;;1999.90;999.90;;;10.10;99.90;;;;;;5074288;28;20167;-72
2021/05/16 06:15:47;;;;;;;1999.90;999.90;;;10.10;99.90;;;;;;5068064;28;20264;-72
2021/05/16 06:18:13;;;;;;;1999.90;999.90;;;10.10;99.90;;;;;;5074261;28;20282;-73
2021/05/16 06:20:39;;;;;;;1999.90;999.90;;;10.20;99.90;;;;;;5072132;28;20654;-73
2021/05/16 06:23:06;;;;;;;1999.90;999.90;;;10.20;99.90;;;;;;5073890;28;20179;-72
2021/05/16 06:25:31;;;;;;;1999.90;999.90;;;10.20;99.90;;;;;;5071912;28;20176;-73
2021/05/16 06:27:57;;;;;;;1999.90;999.90;;;10.10;99.90;;;;;;5073946;28;20212;-73
2021/05/16 06:30:24;;;;;;;1999.90;999.90;;;10.20;99.90;;;;;;5074614;28;20644;-73
2021/05/16 06:32:50;;;;;;;1999.90;999.90;;;10.20;99.90;;;;;;5061720;28;20645;-73
2021/05/16 06:35:16;;;;;;;1999.90;999.90;;;10.40;99.90;;;;;;5063805;28;20180;-72
2021/05/16 06:37:42;;;;;;;1999.90;999.90;;;10.40;99.90;;;;;;5049981;28;20631;-73
2021/05/16 06:40:08;;;;;;;1999.90;999.90;;;10.50;99.90;;;;;;5057281;28;20267;-73
2021/05/16 06:42:34;;;;;;;1999.90;999.90;;;10.50;99.90;;;;;;5064485;28;20545;-73
2021/05/16 06:44:59;;;;;;;1999.90;999.90;;;10.50;99.90;;;;;;5039098;28;20183;-73
2021/05/16 06:47:25;;;;;;;1999.90;999.90;;;10.30;99.90;;;;;;5057039;28;20229;-73
2021/05/16 06:49:53;;;;;;;1999.90;999.90;;;10.30;99.90;;;;;;5061214;28;20611;-73
2021/05/16 06:52:20;;;;;;;1999.90;999.90;;;10.30;99.90;;;;;;5055670;28;20231;-72
2021/05/16 06:54:45;;;;;;;1999.90;999.90;;;10.40;99.90;;;;;;5062455;28;20237;-73
2021/05/16 06:57:11;;;;;;;1999.90;999.90;;;10.50;99.90;;;;;;5058850;28;20988;-73
2021/05/16 06:59:36;;;;;;;1999.90;999.90;;;10.60;99.90;;;;;;5068426;28;20191;-72
2021/05/16 07:02:02;;;;;;;1999.90;999.90;;;10.60;99.90;;;;;;5056050;28;20186;-73
2021/05/16 07:04:28;;;;;;;1999.90;999.90;;;10.60;99.90;;;;;;5057021;28;20183;-73
2021/05/16 07:06:54;;;;;;;1999.90;999.90;;;10.70;99.90;;;;;;5045489;28;20205;-73
2021/05/16 07:09:20;;;;;;;1999.90;999.90;;;10.60;99.90;;;;;;5069869;28;20690;-73
2021/05/16 07:11:45;;;;;;;1999.90;999.90;;;10.60;99.90;;;;;;5071698;28;20229;-73
2021/05/16 07:14:11;;;;;;;1999.90;999.90;;;10.80;99.90;;;;;;5068941;28;20179;-73
2021/05/16 07:16:37;;;;;;;1999.90;999.90;;;10.80;99.90;;;;;;5066633;28;20249;-73
2021/05/16 07:19:03;;;;;;;1999.90;999.90;;;10.90;99.90;;;;;;5068261;28;20668;-73
2021/05/16 07:21:30;;;;;;;1999.90;999.90;;;11.00;99.90;;;;;;5065782;28;20267;-73
2021/05/16 07:23:56;;;;;;;1999.90;999.90;;;11.10;99.90;;;;;;5069848;28;20217;-73
2021/05/16 07:26:21;;;;;;;1999.90;999.90;;;11.10;99.90;;;;;;5055350;28;20180;-73
2021/05/16 07:28:47;;;;;;;1999.90;999.90;;;11.10;99.90;;;;;;5071872;28;20265;-73
2021/05/16 07:31:13;;;;;;;1999.90;999.90;;;11.20;99.90;;;;;;5073262;28;20290;-73
2021/05/16 07:33:39;;;;;;;1999.90;999.90;;;11.30;99.90;;;;;;5073188;28;20184;-73
2021/05/16 07:36:06;;;;;;;1999.90;999.90;;;11.40;99.90;;;;;;5055451;28;20252;-73
2021/05/16 07:38:33;;;;;;;1999.90;999.90;;;11.50;99.90;;;;;;5073172;28;20722;-73
2021/05/16 07:40:58;;;;;;;1999.90;999.90;;;11.40;99.90;;;;;;5073306;28;20190;-73
2021/05/16 07:43:25;;;;;;;1999.90;999.90;;;11.40;99.90;;;;;;5073280;28;20544;-73
2021/05/16 07:45:51;;;;;;;1999.90;999.90;;;11.40;99.90;;;;;;5073231;28;20183;-73
2021/05/16 07:48:18;;;;;;;1999.90;999.90;;;11.50;99.90;;;;;;5073479;28;20571;-73
2021/05/16 07:50:44;;;;;;;1999.90;999.90;;;11.60;99.90;;;;;;5073108;28;20190;-73
2021/05/16 07:53:11;;;;;;;1999.90;999.90;;;11.70;99.90;;;;;;5073089;28;20177;-73
2021/05/16 07:55:40;;;;;;;1999.90;999.90;;;11.90;99.90;;;;;;5068417;28;20213;-73
2021/05/16 07:58:06;;;;;;;1999.90;999.90;;;11.90;99.90;;;;;;5073143;28;20206;-73
2021/05/16 08:00:32;;;;;;;1999.90;999.90;;;11.70;99.90;;;;;;5073089;28;20181;-74
2021/05/16 08:02:58;;;;;;;1999.90;999.90;;;11.80;99.90;;;;;;5070548;28;20201;-73
2021/05/16 08:05:23;;;;;;;1999.90;999.90;;;12.00;99.90;;;;;;5055038;28;20172;-73
2021/05/16 08:07:49;;;;;;;1999.90;999.90;;;12.00;99.90;;;;;;5072028;28;20652;-72
2021/05/16 08:10:19;;;;;;;1999.90;999.90;;;12.20;99.90;;;;;;5044985;28;20213;-73
2021/05/16 08:12:45;;;;;;;1999.90;999.90;;;12.40;99.90;;;;;;5037023;28;20202;-74
2021/05/16 08:15:12;;;;;;;1999.90;999.90;;;12.60;99.90;;;;;;5055226;28;20198;-74
2021/05/16 08:17:37;;;;;;;1999.90;999.90;;;12.50;99.90;;;;;;5066377;28;20283;-82
2021/05/16 08:20:05;;;;;;;1999.90;999.90;;;12.60;99.90;;;;;;5075553;28;20204;-81
2021/05/16 08:22:31;;;;;;;1999.90;999.90;;;12.60;99.90;;;;;;5079945;28;20172;-82
2021/05/16 08:24:57;;;;;;;1999.90;999.90;;;12.50;99.90;;;;;;5062984;28;20186;-82
2021/05/16 08:27:23;;;;;;;1999.90;999.90;;;12.60;99.90;;;;;;5107640;22;20301;-82
2021/05/16 08:29:49;;;;;;;1999.90;999.90;;;12.70;99.90;;;;;;5101690;28;20574;-82
2021/05/16 08:32:14;;;;;;;1999.90;999.90;;;12.80;99.90;;;;;;5100602;28;20235;-82
2021/05/16 08:34:40;;;;;;;1999.90;999.90;;;12.80;99.90;;;;;;5082860;28;20172;-82
2021/05/16 08:37:08;;;;;;;1999.90;999.90;;;12.80;99.90;;;;;;5100943;28;20561;-82
2021/05/16 08:39:34;;;;;;;1999.90;999.90;;;;;;;;;;5080184;28;20215;-83
2021/05/16 08:42:00;;;;;;;1999.90;999.90;;;13.10;99.90;;;;;;5083452;28;20204;-83
2021/05/16 08:44:26;;;;;;;1999.90;999.90;;;13.40;99.90;;;;;;5100987;28;20198;-81
2021/05/16 08:46:52;;;;;;;1999.90;999.90;;;13.70;99.90;;;;;;5082989;28;20203;-82
2021/05/16 08:49:19;;;;;;;1999.90;999.90;;;13.60;99.90;;;;;;5101013;28;20185;-82
2021/05/16 08:51:49;;;;;;;1999.90;999.90;;;13.70;99.90;;;;;;5100842;28;20650;-82
2021/05/16 08:54:19;;;;;;;1999.90;999.90;;;13.80;99.90;;;;;;5100341;28;20202;-83
2021/05/16 08:56:47;;;;;;;1999.90;999.90;;;13.60;99.90;;;;;;5082740;28;20217;-82
2021/05/16 08:59:13;;;;;;;1999.90;999.90;;;13.50;99.90;;;;;;5101266;28;20506;-83
2021/05/16 09:01:49;;;;;;;1999.90;999.90;;;13.70;99.90;;;;;;5100889;28;20226;-82
2021/05/16 09:04:47;;;;;;;1999.90;999.90;;;13.90;99.90;;;;;;5100911;28;20180;-83
2021/05/16 09:07:13;;;;;;;1999.90;999.90;;;14.10;99.90;;;;;;5046482;28;20630;-82
2021/05/16 09:09:39;;;;;;;1999.90;999.90;;;14.30;99.90;;;;;;5100682;28;20176;-82
2021/05/16 09:12:12;;;;;;;1999.90;999.90;;;14.50;99.90;;;;;;5100191;28;20262;-82
2021/05/16 09:14:53;;;;;;;1999.90;999.90;;;14.50;99.90;;;;;;5100451;28;20586;-82
2021/05/16 09:17:29;;;;;;;1999.90;999.90;;;14.20;99.90;;;;;;5100604;28;20188;-82
2021/05/16 09:19:56;;;;;;;1999.90;999.90;;;14.10;99.90;;;;;;5100097;28;20679;-82
2021/05/16 09:22:39;;;;;;;1999.90;999.90;;;14.10;99.90;;;;;;5100255;28;20187;-83
2021/05/16 09:25:09;;;;;;;1999.90;999.90;;;14.30;99.90;;;;;;5069168;28;20682;-82
2021/05/16 09:27:36;;;;;;;1999.90;999.90;;;14.20;99.90;;;;;;5081947;28;20714;-82
2021/05/16 09:30:23;;;;;;;1999.90;999.90;;;14.30;99.90;;;;;;5067491;28;20275;-82
2021/05/16 09:32:52;;;;;;;1999.90;999.90;;;14.50;99.90;;;;;;5099572;28;20203;-82
2021/05/16 09:35:28;;;;;;;1999.90;999.90;;;14.50;99.90;;;;;;5099614;28;20177;-82
2021/05/16 09:37:58;;;;;;;1999.90;999.90;;;14.40;99.90;;;;;;5099457;28;20671;-82
2021/05/16 09:40:29;;;;;;;1999.90;999.90;;;14.20;99.90;;;;;;5100370;28;20180;-82
2021/05/16 09:43:13;;;;;;;1999.90;999.90;;;14.40;99.90;;;;;;5101232;28;20271;-83
2021/05/16 09:45:49;;;;;;;1999.90;999.90;;;14.50;99.90;;;;;;5100284;28;20666;-83
2021/05/16 09:48:28;;;;;;;1999.90;999.90;;;14.70;99.90;;;;;;5099324;28;20196;-83
2021/05/16 09:51:14;;;;;;;1999.90;999.90;;;14.80;99.90;;;;;;5099075;28;20192;-82
2021/05/16 09:54:00;;;;;;;1999.90;999.90;;;14.70;99.90;;;;;;5100062;28;20200;-83
2021/05/16 09:56:38;;;;;;;1999.90;999.90;;;14.80;99.90;;;;;;5099714;28;20180;-82
2021/05/16 09:59:09;;;;;;;1999.90;999.90;;;14.80;99.90;;;;;;5097208;28;20189;-83
2021/05/16 10:01:37;;;;;;;1999.90;999.90;;;14.80;99.90;;;;;;5097591;28;20196;-84
2021/05/16 10:04:04;;;;;;;1999.90;999.90;;;14.90;99.90;;;;;;5099055;28;20631;-83
2021/05/16 10:06:30;;;;;;;1999.90;999.90;;;15.10;99.90;;;;;;5081043;28;20191;-84
2021/05/16 10:08:57;;;;;;;1999.90;999.90;;;15.10;99.90;;;;;;5099577;28;20176;-83
2021/05/16 10:11:24;;;;;;;1999.90;999.90;;;15.20;99.90;;;;;;5099303;28;20193;-83
2021/05/16 10:14:14;;;;;;;1999.90;999.90;;;15.30;99.90;;;;;;5099285;28;20184;-83
2021/05/16 10:16:45;;;;;;;1999.90;999.90;;;15.40;99.90;;;;;;5100256;28;20196;-84
2021/05/16 10:19:18;;;;;;;1999.90;999.90;;;15.60;99.90;;;;;;5081149;28;20248;-84
2021/05/16 10:21:44;;;;;;;1999.90;999.90;;;15.70;99.90;;;;;;5081359;28;20172;-82
2021/05/16 10:24:10;;;;;;;1999.90;999.90;;;15.60;99.90;;;;;;5099028;28;20172;-84
2021/05/16 10:26:36;;;;;;;1999.90;999.90;;;15.40;99.90;;;;;;5098829;28;20289;-84
2021/05/16 10:29:11;;;;;;;1999.90;999.90;;;15.20;99.90;;;;;;5080615;28;20218;-83
2021/05/16 10:31:54;;;;;;;1999.90;999.90;;;15.00;99.90;;;;;;5089892;28;20187;-84
2021/05/16 10:34:31;;;;;;;1999.90;999.90;;;15.10;99.90;;;;;;5098974;28;20621;-84
2021/05/16 10:36:59;;;;;;;1999.90;999.90;;;15.30;99.90;;;;;;5098692;28;20207;-83
2021/05/16 10:39:43;;;;;;;1999.90;999.90;;;15.20;99.90;;;;;;5098486;28;20579;-83
2021/05/16 10:42:13;;;;;;;1999.90;999.90;;;15.10;99.90;;;;;;5098292;28;20180;-82
2021/05/16 10:44:53;;;;;;;1999.90;999.90;;;15.10;99.90;;;;;;5098860;28;20176;-83
2021/05/16 10:47:45;;;;;;;1999.90;999.90;;;15.10;99.90;;;;;;5079807;28;20196;-83
2021/05/16 10:50:23;;;;;;;1999.90;999.90;;;15.30;99.90;;;;;;5098740;28;20180;-83
2021/05/16 10:53:04;;;;;;;1999.90;999.90;;;15.40;99.90;;;;;;5098493;28;20219;-83
2021/05/16 10:55:34;;;;;;;1999.90;999.90;;;15.40;99.90;;;;;;5098279;28;20168;-83
2021/05/16 10:58:01;;;;;;;1999.90;999.90;;;15.20;99.90;;;;;;5079706;28;20254;-85
2021/05/16 11:00:30;;;;;;;1999.90;999.90;;;15.00;99.90;;;;;;5098077;28;20295;-83
2021/05/16 11:03:13;;;;;;;1999.90;999.90;;;15.00;99.90;;;;;;5097818;28;20674;-83
2021/05/16 11:05:50;;;;;;;1999.90;999.90;;;15.10;99.90;;;;;;5079748;28;20184;-84
2021/05/16 11:08:16;;;;;;;1999.90;999.90;;;15.20;99.90;;;;;;5079605;28;20576;-84
2021/05/16 11:10:50;;;;;;;1999.90;999.90;;;15.10;99.90;;;;;;5080007;28;20184;-82
2021/05/16 11:13:26;;;;;;;1999.90;999.90;;;15.10;99.90;;;;;;5098656;28;20237;-82
2021/05/16 11:16:07;;;;;;;1999.90;999.90;;;15.30;99.90;;;;;;5097677;28;20512;-82
2021/05/16 11:18:33;;;;;;;1999.90;999.90;;;15.20;99.90;;;;;;5079473;28;20192;-82
2021/05/16 11:21:01;;;;;;;1999.90;999.90;;;15.20;99.90;;;;;;5079510;28;20193;-82
2021/05/16 11:23:32;;;;;;;1999.90;999.90;;;15.10;99.90;;;;;;5079856;28;20241;-82
2021/05/16 11:26:06;;;;;;;1999.90;999.90;;;15.10;99.90;;;;;;5079691;28;20230;-82
2021/05/16 11:28:52;;;;;;;1999.90;999.90;;;15.10;99.90;;;;;;5097327;28;20216;-84
2021/05/16 11:31:20;;;;;;;1999.90;999.90;;;15.00;99.90;;;;;;5097462;28;20188;-85
2021/05/16 11:33:57;;;;;;;1999.90;999.90;;;15.00;99.90;;;;;;5097923;28;20180;-83
2021/05/16 11:36:28;;;;;;;1999.90;999.90;;;14.80;99.90;;;;;;5078419;28;20168;-83
2021/05/16 11:38:55;;;;;;;1999.90;999.90;;;14.80;99.90;;;;;;5079745;28;20635;-83
2021/05/16 11:41:26;;;;;;;1999.90;999.90;;;14.80;99.90;;;;;;5097014;28;20263;-84
2021/05/16 11:43:52;;;;;;;1999.90;999.90;;;14.60;99.90;;;;;;5079874;28;20257;-85
2021/05/16 11:46:30;;;;;;;1999.90;999.90;;;14.50;99.90;;;;;;5097555;28;20173;-84
2021/05/16 11:48:55;;;;;;;1999.90;999.90;;;14.50;99.90;;;;;;5097946;28;20180;-83
2021/05/16 11:51:21;;;;;;;1999.90;999.90;;;14.40;99.90;;;;;;5097955;28;20223;-83
2021/05/16 11:53:51;;;;;;;1999.90;999.90;;;14.50;99.90;;;;;;5098161;28;20242;-84
2021/05/16 11:56:21;;;;;;;1999.90;999.90;;;14.50;99.90;;;;;;5078581;28;20190;-83
2021/05/16 11:58:49;;;;;;;1999.90;999.90;;;14.50;99.90;;;;;;5097272;28;20168;-82
2021/05/16 12:01:15;;;;;;;1999.90;999.90;;;14.50;99.90;;;;;;5079783;28;20200;-84
2021/05/16 12:04:16;;;;;;;1999.90;999.90;;;14.40;99.90;;;;;;5097441;28;20232;-84
2021/05/16 12:06:46;;;;;;;1999.90;999.90;;;14.30;99.90;;;;;;5049744;28;20616;-83
2021/05/16 12:09:18;;;;;;;1999.90;999.90;;;14.30;99.90;;;;;;5097766;28;20179;-82